sensor_id;sensor_type;location;lat;lon;timestamp;temperature;humidity
68387;DHT22;55338;43.062;25.624;2022-12-15T00:02:22;8.10;99.90
68387;DHT22;55338;43.062;25.624;2022-12-15T00:05:07;8.10;99.90
68387;DHT22;55338;43.062;25.624;2022-12-15T00:07:51;8.10;99.90
68387;DHT22;55338;43.062;25.624;2022-12-15T00:10:35;8.00;99.90
68387;DHT22;55338;43.062;25.624;2022-12-15T00:13:20;7.90;99.90
68387;DHT22;55338;43.062;25.624;2022-12-15T00:16:04;7.90;99.90
68387;DHT22;55338;43.062;25.624;2022-12-15T00:18:49;7.80;99.90
68387;DHT22;55338;43.062;25.624;2022-12-15T00:21:33;7.80;99.90
68387;DHT22;55338;43.062;25.624;2022-12-15T00:24:18;7.70;99.90
68387;DHT22;55338;43.062;25.624;2022-12-15T00:27:02;7.70;99.90
68387;DHT22;55338;43.062;25.624;2022-12-15T00:29:46;7.70;99.90
68387;DHT22;55338;43.062;25.624;2022-12-15T00:32:30;7.70;99.90
68387;DHT22;55338;43.062;25.624;2022-12-15T00:35:15;7.80;99.90
68387;DHT22;55338;43.062;25.624;2022-12-15T00:38:09;7.80;99.90
68387;DHT22;55338;43.062;25.624;2022-12-15T00:40:54;7.80;99.90
68387;DHT22;55338;43.062;25.624;2022-12-15T00:43:34;7.80;99.90
68387;DHT22;55338;43.062;25.624;2022-12-15T00:46:00;7.90;99.90
68387;DHT22;55338;43.062;25.624;2022-12-15T00:48:45;7.90;99.90
68387;DHT22;55338;43.062;25.624;2022-12-15T00:51:12;7.90;99.90
68387;DHT22;55338;43.062;25.624;2022-12-15T00:53:38;8.00;99.90
68387;DHT22;55338;43.062;25.624;2022-12-15T00:56:23;8.00;99.90
68387;DHT22;55338;43.062;25.624;2022-12-15T00:59:07;8.00;99.90
68387;DHT22;55338;43.062;25.624;2022-12-15T01:01:52;8.00;99.90
68387;DHT22;55338;43.062;25.624;2022-12-15T01:04:36;8.10;99.90
68387;DHT22;55338;43.062;25.624;2022-12-15T01:07:21;8.10;99.90
68387;DHT22;55338;43.062;25.624;2022-12-15T01:10:05;8.20;99.90
68387;DHT22;55338;43.062;25.624;2022-12-15T01:12:50;7.90;99.90
68387;DHT22;55338;43.062;25.624;2022-12-15T01:15:37;7.30;99.90
68387;DHT22;55338;43.062;25.624;2022-12-15T01:18:22;6.90;99.90
68387;DHT22;55338;43.062;25.624;2022-12-15T01:21:10;5.80;99.90
68387;DHT22;55338;43.062;25.624;2022-12-15T01:23:37;5.10;99.90
68387;DHT22;55338;43.062;25.624;2022-12-15T01:26:04;4.90;99.90
68387;DHT22;55338;43.062;25.624;2022-12-15T01:28:30;4.70;99.90
68387;DHT22;55338;43.062;25.624;2022-12-15T01:30:56;4.50;99.90
68387;DHT22;55338;43.062;25.624;2022-12-15T01:33:22;4.30;99.90
68387;DHT22;55338;43.062;25.624;2022-12-15T01:35:59;4.10;99.90
68387;DHT22;55338;43.062;25.624;2022-12-15T01:38:25;3.70;99.90
68387;DHT22;55338;43.062;25.624;2022-12-15T01:41:03;3.60;99.90
68387;DHT22;55338;43.062;25.624;2022-12-15T01:43:32;3.40;99.90
68387;DHT22;55338;43.062;25.624;2022-12-15T01:51:05;3.50;99.90
68387;DHT22;55338;43.062;25.624;2022-12-15T01:53:36;3.50;99.90
68387;DHT22;55338;43.062;25.624;2022-12-15T01:56:04;3.50;99.90
68387;DHT22;55338;43.062;25.624;2022-12-15T01:58:33;3.50;99.90
68387;DHT22;55338;43.062;25.624;2022-12-15T02:01:00;3.60;99.90
68387;DHT22;55338;43.062;25.624;2022-12-15T02:03:27;3.60;99.90
68387;DHT22;55338;43.062;25.624;2022-12-15T02:05:54;3.60;99.90
68387;DHT22;55338;43.062;25.624;2022-12-15T02:08:20;3.70;99.90
68387;DHT22;55338;43.062;25.624;2022-12-15T02:10:55;3.50;99.90
68387;DHT22;55338;43.062;25.624;2022-12-15T02:13:38;3.50;99.90
68387;DHT22;55338;43.062;25.624;2022-12-15T02:16:22;3.60;99.90
68387;DHT22;55338;43.062;25.624;2022-12-15T02:18:56;3.60;99.90
68387;DHT22;55338;43.062;25.624;2022-12-15T02:21:31;3.50;99.90
68387;DHT22;55338;43.062;25.624;2022-12-15T02:32:29;3.50;99.90
68387;DHT22;55338;43.062;25.624;2022-12-15T02:35:14;3.50;99.90
68387;DHT22;55338;43.062;25.624;2022-12-15T02:37:43;3.50;99.90
68387;DHT22;55338;43.062;25.624;2022-12-15T02:40:10;3.40;99.90
68387;DHT22;55338;43.062;25.624;2022-12-15T02:42:40;3.50;99.90
68387;DHT22;55338;43.062;25.624;2022-12-15T02:45:20;3.40;99.90
68387;DHT22;55338;43.062;25.624;2022-12-15T02:54:02;3.30;99.90
68387;DHT22;55338;43.062;25.624;2022-12-15T02:56:50;3.30;99.90
68387;DHT22;55338;43.062;25.624;2022-12-15T03:02:22;3.30;99.90
68387;DHT22;55338;43.062;25.624;2022-12-15T03:04:49;3.30;99.90
68387;DHT22;55338;43.062;25.624;2022-12-15T03:07:15;3.40;99.90
68387;DHT22;55338;43.062;25.624;2022-12-15T03:09:41;3.30;99.90
68387;DHT22;55338;43.062;25.624;2022-12-15T03:12:07;3.40;99.90
68387;DHT22;55338;43.062;25.624;2022-12-15T03:14:33;3.20;99.90
68387;DHT22;55338;43.062;25.624;2022-12-15T03:16:59;3.20;99.90
68387;DHT22;55338;43.062;25.624;2022-12-15T03:19:24;3.20;99.90
68387;DHT22;55338;43.062;25.624;2022-12-15T03:21:51;3.20;99.90
68387;DHT22;55338;43.062;25.624;2022-12-15T03:24:17;3.30;99.90
68387;DHT22;55338;43.062;25.624;2022-12-15T03:26:42;3.30;99.90
68387;DHT22;55338;43.062;25.624;2022-12-15T03:29:08;3.40;99.90
68387;DHT22;55338;43.062;25.624;2022-12-15T03:31:34;3.40;99.90
68387;DHT22;55338;43.062;25.624;2022-12-15T03:34:00;3.40;99.90
68387;DHT22;55338;43.062;25.624;2022-12-15T03:36:26;3.40;99.90
68387;DHT22;55338;43.062;25.624;2022-12-15T03:38:52;3.40;99.90
68387;DHT22;55338;43.062;25.624;2022-12-15T03:41:18;3.50;99.90
68387;DHT22;55338;43.062;25.624;2022-12-15T03:43:44;3.30;99.90
68387;DHT22;55338;43.062;25.624;2022-12-15T03:46:11;3.30;99.90
68387;DHT22;55338;43.062;25.624;2022-12-15T03:48:36;3.30;99.90
68387;DHT22;55338;43.062;25.624;2022-12-15T03:51:02;3.30;99.90
68387;DHT22;55338;43.062;25.624;2022-12-15T03:53:28;3.40;99.90
68387;DHT22;55338;43.062;25.624;2022-12-15T03:55:54;3.40;99.90
68387;DHT22;55338;43.062;25.624;2022-12-15T03:58:19;3.40;99.90
68387;DHT22;55338;43.062;25.624;2022-12-15T04:00:45;3.30;99.90
68387;DHT22;55338;43.062;25.624;2022-12-15T04:03:11;3.20;99.90
68387;DHT22;55338;43.062;25.624;2022-12-15T04:05:37;3.30;99.90
68387;DHT22;55338;43.062;25.624;2022-12-15T04:08:04;3.20;99.90
68387;DHT22;55338;43.062;25.624;2022-12-15T04:10:32;3.20;99.90
68387;DHT22;55338;43.062;25.624;2022-12-15T04:13:00;3.30;99.90
68387;DHT22;55338;43.062;25.624;2022-12-15T04:15:27;3.30;99.90
68387;DHT22;55338;43.062;25.624;2022-12-15T04:17:53;3.30;99.90
68387;DHT22;55338;43.062;25.624;2022-12-15T04:20:19;3.30;99.90
68387;DHT22;55338;43.062;25.624;2022-12-15T04:22:46;3.30;99.90
68387;DHT22;55338;43.062;25.624;2022-12-15T04:25:15;3.30;99.90
68387;DHT22;55338;43.062;25.624;2022-12-15T04:27:59;3.40;99.90
68387;DHT22;55338;43.062;25.624;2022-12-15T04:30:49;3.40;99.90
68387;DHT22;55338;43.062;25.624;2022-12-15T04:33:35;3.40;99.90
68387;DHT22;55338;43.062;25.624;2022-12-15T04:36:19;3.40;99.90
68387;DHT22;55338;43.062;25.624;2022-12-15T04:39:04;3.30;99.90
68387;DHT22;55338;43.062;25.624;2022-12-15T04:41:49;3.40;99.90
68387;DHT22;55338;43.062;25.624;2022-12-15T04:44:34;3.40;99.90
68387;DHT22;55338;43.062;25.624;2022-12-15T04:47:18;3.40;99.90
68387;DHT22;55338;43.062;25.624;2022-12-15T04:50:03;3.40;99.90
68387;DHT22;55338;43.062;25.624;2022-12-15T04:52:47;3.40;99.90
68387;DHT22;55338;43.062;25.624;2022-12-15T04:55:36;3.30;99.90
68387;DHT22;55338;43.062;25.624;2022-12-15T04:58:21;3.30;99.90
68387;DHT22;55338;43.062;25.624;2022-12-15T05:01:05;3.40;99.90
68387;DHT22;55338;43.062;25.624;2022-12-15T05:03:49;3.30;99.90
68387;DHT22;55338;43.062;25.624;2022-12-15T05:06:34;3.30;99.90
68387;DHT22;55338;43.062;25.624;2022-12-15T05:09:18;3.40;99.90
68387;DHT22;55338;43.062;25.624;2022-12-15T05:12:03;3.40;99.90
68387;DHT22;55338;43.062;25.624;2022-12-15T05:14:48;3.40;99.90
68387;DHT22;55338;43.062;25.624;2022-12-15T05:17:32;3.40;99.90
68387;DHT22;55338;43.062;25.624;2022-12-15T05:20:16;3.30;99.90
68387;DHT22;55338;43.062;25.624;2022-12-15T05:23:01;3.30;99.90
68387;DHT22;55338;43.062;25.624;2022-12-15T05:25:45;3.40;99.90
68387;DHT22;55338;43.062;25.624;2022-12-15T05:28:29;3.40;99.90
68387;DHT22;55338;43.062;25.624;2022-12-15T05:31:13;3.50;99.90
68387;DHT22;55338;43.062;25.624;2022-12-15T05:33:58;3.50;99.90
68387;DHT22;55338;43.062;25.624;2022-12-15T05:36:23;3.60;99.90
68387;DHT22;55338;43.062;25.624;2022-12-15T05:38:50;3.60;99.90
68387;DHT22;55338;43.062;25.624;2022-12-15T05:41:18;3.60;99.90
68387;DHT22;55338;43.062;25.624;2022-12-15T05:43:44;3.60;99.90
68387;DHT22;55338;43.062;25.624;2022-12-15T05:46:11;3.70;99.90
68387;DHT22;55338;43.062;25.624;2022-12-15T05:48:37;3.70;99.90
68387;DHT22;55338;43.062;25.624;2022-12-15T05:51:07;3.80;99.90
68387;DHT22;55338;43.062;25.624;2022-12-15T05:53:34;3.80;99.90
68387;DHT22;55338;43.062;25.624;2022-12-15T05:56:09;3.70;99.90
68387;DHT22;55338;43.062;25.624;2022-12-15T05:58:35;3.60;99.90
68387;DHT22;55338;43.062;25.624;2022-12-15T06:01:03;3.50;99.90
68387;DHT22;55338;43.062;25.624;2022-12-15T06:03:30;3.50;99.90
68387;DHT22;55338;43.062;25.624;2022-12-15T06:05:56;3.50;99.90
68387;DHT22;55338;43.062;25.624;2022-12-15T06:08:22;3.60;99.90
68387;DHT22;55338;43.062;25.624;2022-12-15T06:10:52;3.60;99.90
68387;DHT22;55338;43.062;25.624;2022-12-15T06:13:19;3.60;99.90
68387;DHT22;55338;43.062;25.624;2022-12-15T06:16:00;3.70;99.90
68387;DHT22;55338;43.062;25.624;2022-12-15T06:18:32;3.80;99.90
68387;DHT22;55338;43.062;25.624;2022-12-15T06:21:07;3.90;99.90
68387;DHT22;55338;43.062;25.624;2022-12-15T06:23:33;3.90;99.90
68387;DHT22;55338;43.062;25.624;2022-12-15T06:26:06;3.80;99.90
68387;DHT22;55338;43.062;25.624;2022-12-15T06:28:32;3.80;99.90
68387;DHT22;55338;43.062;25.624;2022-12-15T06:31:01;3.90;99.90
68387;DHT22;55338;43.062;25.624;2022-12-15T06:33:28;3.90;99.90
68387;DHT22;55338;43.062;25.624;2022-12-15T06:35:54;4.00;99.90
68387;DHT22;55338;43.062;25.624;2022-12-15T06:38:21;4.00;99.90
68387;DHT22;55338;43.062;25.624;2022-12-15T06:41:01;4.00;99.90
68387;DHT22;55338;43.062;25.624;2022-12-15T06:43:28;4.00;99.90
68387;DHT22;55338;43.062;25.624;2022-12-15T06:45:54;4.10;99.90
68387;DHT22;55338;43.062;25.624;2022-12-15T06:48:21;4.20;99.90
68387;DHT22;55338;43.062;25.624;2022-12-15T06:50:47;4.20;99.90
68387;DHT22;55338;43.062;25.624;2022-12-15T06:53:14;4.20;99.90
68387;DHT22;55338;43.062;25.624;2022-12-15T06:55:42;4.20;99.90
68387;DHT22;55338;43.062;25.624;2022-12-15T06:58:10;4.20;99.90
68387;DHT22;55338;43.062;25.624;2022-12-15T07:00:37;4.40;99.90
68387;DHT22;55338;43.062;25.624;2022-12-15T07:03:08;4.40;99.90
68387;DHT22;55338;43.062;25.624;2022-12-15T07:05:34;4.50;99.90
68387;DHT22;55338;43.062;25.624;2022-12-15T07:08:00;4.50;99.90
68387;DHT22;55338;43.062;25.624;2022-12-15T07:10:26;4.50;99.90
68387;DHT22;55338;43.062;25.624;2022-12-15T07:12:52;4.50;99.90
68387;DHT22;55338;43.062;25.624;2022-12-15T07:15:20;4.70;99.90
68387;DHT22;55338;43.062;25.624;2022-12-15T07:17:46;4.70;99.90
68387;DHT22;55338;43.062;25.624;2022-12-15T07:20:12;4.80;99.90
68387;DHT22;55338;43.062;25.624;2022-12-15T07:22:38;4.90;99.90
68387;DHT22;55338;43.062;25.624;2022-12-15T07:25:04;5.10;99.90
68387;DHT22;55338;43.062;25.624;2022-12-15T07:27:30;5.30;99.90
68387;DHT22;55338;43.062;25.624;2022-12-15T07:29:56;5.40;99.90
68387;DHT22;55338;43.062;25.624;2022-12-15T07:32:22;5.40;99.90
68387;DHT22;55338;43.062;25.624;2022-12-15T07:34:48;5.40;99.90
68387;DHT22;55338;43.062;25.624;2022-12-15T07:37:14;5.40;99.90
68387;DHT22;55338;43.062;25.624;2022-12-15T07:39:40;5.40;99.90
68387;DHT22;55338;43.062;25.624;2022-12-15T07:42:06;5.50;99.90
68387;DHT22;55338;43.062;25.624;2022-12-15T07:44:32;5.50;99.90
68387;DHT22;55338;43.062;25.624;2022-12-15T07:46:58;5.50;99.90
68387;DHT22;55338;43.062;25.624;2022-12-15T07:49:24;5.50;99.90
68387;DHT22;55338;43.062;25.624;2022-12-15T07:51:50;5.60;99.90
68387;DHT22;55338;43.062;25.624;2022-12-15T07:54:16;5.60;99.90
68387;DHT22;55338;43.062;25.624;2022-12-15T07:56:42;5.60;99.90
68387;DHT22;55338;43.062;25.624;2022-12-15T07:59:08;5.60;99.90
68387;DHT22;55338;43.062;25.624;2022-12-15T08:01:36;5.60;99.90
68387;DHT22;55338;43.062;25.624;2022-12-15T08:04:02;5.70;99.90
68387;DHT22;55338;43.062;25.624;2022-12-15T08:06:28;5.70;99.90
68387;DHT22;55338;43.062;25.624;2022-12-15T08:08:54;5.70;99.90
68387;DHT22;55338;43.062;25.624;2022-12-15T08:11:51;5.70;99.90
68387;DHT22;55338;43.062;25.624;2022-12-15T08:14:18;5.90;99.90
68387;DHT22;55338;43.062;25.624;2022-12-15T08:16:47;5.90;99.90
68387;DHT22;55338;43.062;25.624;2022-12-15T08:19:14;6.00;99.90
68387;DHT22;55338;43.062;25.624;2022-12-15T08:21:41;6.10;99.90
68387;DHT22;55338;43.062;25.624;2022-12-15T08:24:08;6.00;99.90
68387;DHT22;55338;43.062;25.624;2022-12-15T08:26:36;6.10;99.90
68387;DHT22;55338;43.062;25.624;2022-12-15T08:29:04;6.10;99.90
68387;DHT22;55338;43.062;25.624;2022-12-15T08:31:30;6.20;99.90
68387;DHT22;55338;43.062;25.624;2022-12-15T08:33:58;6.10;99.90
68387;DHT22;55338;43.062;25.624;2022-12-15T08:36:24;6.20;99.90
68387;DHT22;55338;43.062;25.624;2022-12-15T08:38:50;6.20;99.90
68387;DHT22;55338;43.062;25.624;2022-12-15T08:41:18;6.30;99.90
68387;DHT22;55338;43.062;25.624;2022-12-15T08:43:49;6.30;99.90
68387;DHT22;55338;43.062;25.624;2022-12-15T08:46:27;6.30;99.90
68387;DHT22;55338;43.062;25.624;2022-12-15T08:48:57;6.40;99.90
68387;DHT22;55338;43.062;25.624;2022-12-15T08:51:25;6.40;99.90
68387;DHT22;55338;43.062;25.624;2022-12-15T08:54:04;6.40;99.90
68387;DHT22;55338;43.062;25.624;2022-12-15T08:56:30;6.40;99.90
68387;DHT22;55338;43.062;25.624;2022-12-15T08:58:59;6.40;99.90
68387;DHT22;55338;43.062;25.624;2022-12-15T09:01:42;6.40;99.90
68387;DHT22;55338;43.062;25.624;2022-12-15T09:04:08;6.40;99.90
68387;DHT22;55338;43.062;25.624;2022-12-15T09:06:34;6.40;99.90
68387;DHT22;55338;43.062;25.624;2022-12-15T09:09:05;6.50;99.90
68387;DHT22;55338;43.062;25.624;2022-12-15T09:11:32;6.70;99.90
68387;DHT22;55338;43.062;25.624;2022-12-15T09:13:59;6.80;99.90
68387;DHT22;55338;43.062;25.624;2022-12-15T09:16:25;6.80;99.90
68387;DHT22;55338;43.062;25.624;2022-12-15T09:18:55;6.90;99.90
68387;DHT22;55338;43.062;25.624;2022-12-15T09:21:23;7.00;99.90
68387;DHT22;55338;43.062;25.624;2022-12-15T09:23:53;7.10;99.90
68387;DHT22;55338;43.062;25.624;2022-12-15T09:26:52;7.10;99.90
68387;DHT22;55338;43.062;25.624;2022-12-15T09:29:28;7.20;99.90
68387;DHT22;55338;43.062;25.624;2022-12-15T09:31:55;7.10;99.90
68387;DHT22;55338;43.062;25.624;2022-12-15T09:34:21;7.10;99.90
68387;DHT22;55338;43.062;25.624;2022-12-15T09:36:47;7.10;99.90
68387;DHT22;55338;43.062;25.624;2022-12-15T09:39:13;7.20;99.90
68387;DHT22;55338;43.062;25.624;2022-12-15T09:41:42;7.20;99.90
68387;DHT22;55338;43.062;25.624;2022-12-15T09:44:24;7.40;99.90
68387;DHT22;55338;43.062;25.624;2022-12-15T09:49:33;7.20;99.90
68387;DHT22;55338;43.062;25.624;2022-12-15T09:52:30;7.20;99.90
68387;DHT22;55338;43.062;25.624;2022-12-15T09:54:54;7.30;99.90
68387;DHT22;55338;43.062;25.624;2022-12-15T09:57:43;7.50;99.90
68387;DHT22;55338;43.062;25.624;2022-12-15T10:03:10;7.60;99.90
68387;DHT22;55338;43.062;25.624;2022-12-15T10:06:04;7.50;99.90
68387;DHT22;55338;43.062;25.624;2022-12-15T10:08:35;7.70;99.90
68387;DHT22;55338;43.062;25.624;2022-12-15T10:16:42;7.80;99.90
68387;DHT22;55338;43.062;25.624;2022-12-15T10:19:21;7.80;99.90
68387;DHT22;55338;43.062;25.624;2022-12-15T10:21:48;7.80;99.90
68387;DHT22;55338;43.062;25.624;2022-12-15T10:24:17;7.70;99.90
68387;DHT22;55338;43.062;25.624;2022-12-15T10:26:50;7.70;99.90
68387;DHT22;55338;43.062;25.624;2022-12-15T10:29:28;7.60;99.90
68387;DHT22;55338;43.062;25.624;2022-12-15T10:32:04;7.60;99.90
68387;DHT22;55338;43.062;25.624;2022-12-15T10:34:35;7.60;99.90
68387;DHT22;55338;43.062;25.624;2022-12-15T10:37:03;7.60;99.90
68387;DHT22;55338;43.062;25.624;2022-12-15T10:39:39;7.50;99.90
68387;DHT22;55338;43.062;25.624;2022-12-15T10:42:20;7.60;99.90
68387;DHT22;55338;43.062;25.624;2022-12-15T10:44:49;7.60;99.90
68387;DHT22;55338;43.062;25.624;2022-12-15T10:49:54;7.60;99.90
68387;DHT22;55338;43.062;25.624;2022-12-15T10:52:31;7.60;99.90
68387;DHT22;55338;43.062;25.624;2022-12-15T10:54:59;7.60;99.90
68387;DHT22;55338;43.062;25.624;2022-12-15T10:57:27;7.50;99.90
68387;DHT22;55338;43.062;25.624;2022-12-15T11:00:05;7.50;99.90
68387;DHT22;55338;43.062;25.624;2022-12-15T11:02:44;7.50;99.90
68387;DHT22;55338;43.062;25.624;2022-12-15T11:07:46;7.70;99.90
68387;DHT22;55338;43.062;25.624;2022-12-15T11:10:32;7.70;99.90
68387;DHT22;55338;43.062;25.624;2022-12-15T11:13:22;7.70;99.90
68387;DHT22;55338;43.062;25.624;2022-12-15T11:15:51;7.50;99.90
68387;DHT22;55338;43.062;25.624;2022-12-15T11:21:00;7.60;99.90
68387;DHT22;55338;43.062;25.624;2022-12-15T11:26:27;7.60;99.90
68387;DHT22;55338;43.062;25.624;2022-12-15T11:29:10;7.80;99.90
68387;DHT22;55338;43.062;25.624;2022-12-15T11:31:43;7.80;99.90
68387;DHT22;55338;43.062;25.624;2022-12-15T11:34:18;7.90;99.90
68387;DHT22;55338;43.062;25.624;2022-12-15T11:42:22;8.30;99.90
68387;DHT22;55338;43.062;25.624;2022-12-15T11:47:39;8.70;99.90
68387;DHT22;55338;43.062;25.624;2022-12-15T11:50:26;9.60;99.90
68387;DHT22;55338;43.062;25.624;2022-12-15T11:53:17;10.40;99.90
68387;DHT22;55338;43.062;25.624;2022-12-15T12:07:07;13.20;84.80
68387;DHT22;55338;43.062;25.624;2022-12-15T12:12:39;15.30;76.30
68387;DHT22;55338;43.062;25.624;2022-12-15T12:18:30;16.20;68.40
68387;DHT22;55338;43.062;25.624;2022-12-15T12:23:47;16.60;66.30
68387;DHT22;55338;43.062;25.624;2022-12-15T12:29:26;16.30;67.30
68387;DHT22;55338;43.062;25.624;2022-12-15T12:37:36;17.40;63.60
68387;DHT22;55338;43.062;25.624;2022-12-15T12:40:47;17.70;62.50
68387;DHT22;55338;43.062;25.624;2022-12-15T12:43:30;17.90;61.00
68387;DHT22;55338;43.062;25.624;2022-12-15T12:46:09;18.10;59.50
68387;DHT22;55338;43.062;25.624;2022-12-15T12:51:40;16.30;65.00
68387;DHT22;55338;43.062;25.624;2022-12-15T12:59:39;16.10;66.80
68387;DHT22;55338;43.062;25.624;2022-12-15T13:10:45;15.70;68.00
68387;DHT22;55338;43.062;25.624;2022-12-15T13:15:48;15.80;66.60
68387;DHT22;55338;43.062;25.624;2022-12-15T13:18:14;15.60;67.20
68387;DHT22;55338;43.062;25.624;2022-12-15T13:20:41;15.50;67.70
68387;DHT22;55338;43.062;25.624;2022-12-15T13:28:39;12.60;79.80
68387;DHT22;55338;43.062;25.624;2022-12-15T13:39:06;9.70;96.20
68387;DHT22;55338;43.062;25.624;2022-12-15T13:47:24;8.80;99.90
68387;DHT22;55338;43.062;25.624;2022-12-15T13:50:07;8.50;99.90
68387;DHT22;55338;43.062;25.624;2022-12-15T13:52:52;8.30;99.90
68387;DHT22;55338;43.062;25.624;2022-12-15T13:55:21;8.10;99.90
68387;DHT22;55338;43.062;25.624;2022-12-15T13:58:11;8.10;99.90
68387;DHT22;55338;43.062;25.624;2022-12-15T14:00:47;7.90;99.90
68387;DHT22;55338;43.062;25.624;2022-12-15T14:03:14;7.60;99.90
68387;DHT22;55338;43.062;25.624;2022-12-15T14:05:48;7.50;99.90
68387;DHT22;55338;43.062;25.624;2022-12-15T14:08:15;7.30;99.90
68387;DHT22;55338;43.062;25.624;2022-12-15T14:13:15;7.00;99.90
68387;DHT22;55338;43.062;25.624;2022-12-15T14:15:46;7.00;99.90
68387;DHT22;55338;43.062;25.624;2022-12-15T14:18:42;7.00;99.90
68387;DHT22;55338;43.062;25.624;2022-12-15T14:21:23;7.00;99.90
68387;DHT22;55338;43.062;25.624;2022-12-15T14:23:49;7.00;99.90
68387;DHT22;55338;43.062;25.624;2022-12-15T14:26:16;6.90;99.90
68387;DHT22;55338;43.062;25.624;2022-12-15T14:28:46;6.80;99.90
68387;DHT22;55338;43.062;25.624;2022-12-15T14:31:19;6.80;99.90
68387;DHT22;55338;43.062;25.624;2022-12-15T14:33:48;6.60;99.90
68387;DHT22;55338;43.062;25.624;2022-12-15T14:36:16;6.60;99.90
68387;DHT22;55338;43.062;25.624;2022-12-15T14:41:34;6.40;99.90
68387;DHT22;55338;43.062;25.624;2022-12-15T14:44:10;6.20;99.90
68387;DHT22;55338;43.062;25.624;2022-12-15T14:46:41;6.10;99.90
68387;DHT22;55338;43.062;25.624;2022-12-15T14:49:21;6.00;99.90
68387;DHT22;55338;43.062;25.624;2022-12-15T14:51:59;5.90;99.90
68387;DHT22;55338;43.062;25.624;2022-12-15T14:54:50;5.80;99.90
68387;DHT22;55338;43.062;25.624;2022-12-15T14:57:21;5.80;99.90
68387;DHT22;55338;43.062;25.624;2022-12-15T14:59:48;5.70;99.90
68387;DHT22;55338;43.062;25.624;2022-12-15T15:04:54;5.60;99.90
68387;DHT22;55338;43.062;25.624;2022-12-15T15:07:21;5.50;99.90
68387;DHT22;55338;43.062;25.624;2022-12-15T15:09:47;5.50;99.90
68387;DHT22;55338;43.062;25.624;2022-12-15T15:12:19;5.40;99.90
68387;DHT22;55338;43.062;25.624;2022-12-15T15:14:46;5.40;99.90
68387;DHT22;55338;43.062;25.624;2022-12-15T15:20:04;5.30;99.90
68387;DHT22;55338;43.062;25.624;2022-12-15T15:22:39;5.20;99.90
68387;DHT22;55338;43.062;25.624;2022-12-15T15:28:13;5.10;99.90
68387;DHT22;55338;43.062;25.624;2022-12-15T15:30:47;5.00;99.90
68387;DHT22;55338;43.062;25.624;2022-12-15T15:33:13;4.90;99.90
68387;DHT22;55338;43.062;25.624;2022-12-15T15:35:43;4.90;99.90
68387;DHT22;55338;43.062;25.624;2022-12-15T15:40:56;4.80;99.90
68387;DHT22;55338;43.062;25.624;2022-12-15T15:43:23;4.70;99.90
68387;DHT22;55338;43.062;25.624;2022-12-15T15:46:04;4.70;99.90
68387;DHT22;55338;43.062;25.624;2022-12-15T15:48:34;4.60;99.90
68387;DHT22;55338;43.062;25.624;2022-12-15T15:51:03;4.60;99.90
68387;DHT22;55338;43.062;25.624;2022-12-15T15:53:32;4.50;99.90
68387;DHT22;55338;43.062;25.624;2022-12-15T15:55:58;4.50;99.90
68387;DHT22;55338;43.062;25.624;2022-12-15T15:58:25;4.40;99.90
68387;DHT22;55338;43.062;25.624;2022-12-15T16:00:50;4.40;99.90
68387;DHT22;55338;43.062;25.624;2022-12-15T16:03:18;4.30;99.90
68387;DHT22;55338;43.062;25.624;2022-12-15T16:05:44;4.30;99.90
68387;DHT22;55338;43.062;25.624;2022-12-15T16:08:17;4.30;99.90
68387;DHT22;55338;43.062;25.624;2022-12-15T16:10:45;4.20;99.90
68387;DHT22;55338;43.062;25.624;2022-12-15T16:13:14;4.20;99.90
68387;DHT22;55338;43.062;25.624;2022-12-15T16:15:41;4.10;99.90
68387;DHT22;55338;43.062;25.624;2022-12-15T16:18:07;4.00;99.90
68387;DHT22;55338;43.062;25.624;2022-12-15T16:20:35;4.00;99.90
68387;DHT22;55338;43.062;25.624;2022-12-15T16:23:04;4.00;99.90
68387;DHT22;55338;43.062;25.624;2022-12-15T16:25:38;4.00;99.90
68387;DHT22;55338;43.062;25.624;2022-12-15T16:28:16;3.90;99.90
68387;DHT22;55338;43.062;25.624;2022-12-15T16:30:43;3.60;99.90
68387;DHT22;55338;43.062;25.624;2022-12-15T16:33:10;3.80;99.90
68387;DHT22;55338;43.062;25.624;2022-12-15T16:35:37;3.90;99.90
68387;DHT22;55338;43.062;25.624;2022-12-15T16:41:04;4.00;99.90
68387;DHT22;55338;43.062;25.624;2022-12-15T16:43:31;4.00;99.90
68387;DHT22;55338;43.062;25.624;2022-12-15T16:45:57;3.80;99.90
68387;DHT22;55338;43.062;25.624;2022-12-15T16:48:23;3.70;99.90
68387;DHT22;55338;43.062;25.624;2022-12-15T16:50:51;3.60;99.90
68387;DHT22;55338;43.062;25.624;2022-12-15T16:53:23;3.60;99.90
68387;DHT22;55338;43.062;25.624;2022-12-15T16:55:53;3.50;99.90
68387;DHT22;55338;43.062;25.624;2022-12-15T16:58:21;3.50;99.90
68387;DHT22;55338;43.062;25.624;2022-12-15T17:00:47;3.50;99.90
68387;DHT22;55338;43.062;25.624;2022-12-15T17:03:14;3.40;99.90
68387;DHT22;55338;43.062;25.624;2022-12-15T17:05:41;3.50;99.90
68387;DHT22;55338;43.062;25.624;2022-12-15T17:08:15;3.60;99.90
68387;DHT22;55338;43.062;25.624;2022-12-15T17:10:42;3.50;99.90
68387;DHT22;55338;43.062;25.624;2022-12-15T17:15:56;3.40;99.90
68387;DHT22;55338;43.062;25.624;2022-12-15T17:18:23;3.40;99.90
68387;DHT22;55338;43.062;25.624;2022-12-15T17:20:50;3.40;99.90
68387;DHT22;55338;43.062;25.624;2022-12-15T17:23:19;3.40;99.90
68387;DHT22;55338;43.062;25.624;2022-12-15T17:25:48;3.40;99.90
68387;DHT22;55338;43.062;25.624;2022-12-15T17:28:19;3.40;99.90
68387;DHT22;55338;43.062;25.624;2022-12-15T17:30:47;3.40;99.90
68387;DHT22;55338;43.062;25.624;2022-12-15T17:33:17;3.40;99.90
68387;DHT22;55338;43.062;25.624;2022-12-15T17:35:45;3.30;99.90
68387;DHT22;55338;43.062;25.624;2022-12-15T17:38:15;3.30;99.90
68387;DHT22;55338;43.062;25.624;2022-12-15T17:40:43;3.30;99.90
68387;DHT22;55338;43.062;25.624;2022-12-15T17:43:18;3.30;99.90
68387;DHT22;55338;43.062;25.624;2022-12-15T17:45:44;3.20;99.90
68387;DHT22;55338;43.062;25.624;2022-12-15T17:48:10;3.30;99.90
68387;DHT22;55338;43.062;25.624;2022-12-15T17:50:36;3.30;99.90
68387;DHT22;55338;43.062;25.624;2022-12-15T17:53:03;3.30;99.90
68387;DHT22;55338;43.062;25.624;2022-12-15T17:55:30;3.30;99.90
68387;DHT22;55338;43.062;25.624;2022-12-15T17:57:56;3.20;99.90
68387;DHT22;55338;43.062;25.624;2022-12-15T18:00:26;3.20;99.90
68387;DHT22;55338;43.062;25.624;2022-12-15T18:02:53;3.20;99.90
68387;DHT22;55338;43.062;25.624;2022-12-15T18:05:22;3.10;99.90
68387;DHT22;55338;43.062;25.624;2022-12-15T18:07:54;3.10;99.90
68387;DHT22;55338;43.062;25.624;2022-12-15T18:10:27;3.00;99.90
68387;DHT22;55338;43.062;25.624;2022-12-15T18:12:53;3.00;99.90
68387;DHT22;55338;43.062;25.624;2022-12-15T18:15:22;3.00;99.90
68387;DHT22;55338;43.062;25.624;2022-12-15T18:17:48;2.90;99.90
68387;DHT22;55338;43.062;25.624;2022-12-15T18:20:15;2.80;99.90
68387;DHT22;55338;43.062;25.624;2022-12-15T18:22:41;2.80;99.90
68387;DHT22;55338;43.062;25.624;2022-12-15T18:25:14;2.80;99.90